Time;durP1;ratioP1;P1;durP2;ratioP2;P2;SDS_P1;SDS_P2;PMS_P1;PMS_P2;Temp;Humidity;BMP_temperature;BMP_pressure;BME280_temperature;BME280_humidity;BME280_pressure;Samples;Min_cycle;Max_cycle;Signal;HPM_P1;HPM_P2
2023/08/21 00:01:42;;;;;;;11.98;10.80;;;;;;;;;;5054423;28;20020;-72
2023/08/21 00:04:07;;;;;;;11.57;10.57;;;;;;;;;;5055086;28;20037;-71
2023/08/21 00:06:32;;;;;;;11.57;10.45;;;;;;;;;;5053025;28;20032;-73
2023/08/21 00:08:58;;;;;;;11.65;10.65;;;;;;;;;;5058483;28;20493;-75
2023/08/21 00:11:23;;;;;;;11.15;9.77;;;;;;;;;;5065602;28;20034;-77
2023/08/21 00:13:49;;;;;;;10.98;9.90;;;;;;;;;;5055130;28;20028;-71
2023/08/21 00:16:15;;;;;;;13.15;11.95;;;;;;;;;;5050860;28;20116;-70
2023/08/21 00:18:40;;;;;;;13.75;12.38;;;;;;;;;;5056609;28;20379;-71
2023/08/21 00:21:05;;;;;;;11.95;10.60;;;;;;;;;;5056310;28;20036;-70
2023/08/21 00:23:31;;;;;;;11.73;10.57;;;;;;;;;;5052668;28;20126;-71
2023/08/21 00:25:57;;;;;;;14.10;11.30;;;;;;;;;;5054690;28;20359;-71
2023/08/21 00:28:22;;;;;;;12.52;11.35;;;;;;;;;;5054162;28;20032;-74
2023/08/21 00:30:47;;;;;;;13.13;11.77;;;;;;;;;;5053202;28;20024;-71
2023/08/21 00:33:13;;;;;;;16.23;13.05;;;;;;;;;;5052211;28;20067;-75
2023/08/21 00:35:38;;;;;;;13.30;11.73;;;;;;;;;;5055510;28;20217;-72
2023/08/21 00:38:04;;;;;;;12.40;11.40;;;;;;;;;;5061346;28;20412;-70
2023/08/21 00:40:30;;;;;;;12.25;11.07;;;;;;;;;;5072008;28;20028;-73
2023/08/21 00:42:56;;;;;;;13.35;12.15;;;;;;;;;;5077476;28;20024;-70
2023/08/21 00:45:21;;;;;;;13.90;12.35;;;;;;;;;;5066896;28;22182;-70
2023/08/21 00:47:46;;;;;;;14.93;13.45;;;;;;;;;;5075583;28;20107;-69
2023/08/21 00:50:12;;;;;;;12.63;11.43;;;;;;;;;;5066501;28;20028;-74
2023/08/21 00:52:39;;;;;;;11.80;10.75;;;;;;;;;;5075800;28;20426;-70
2023/08/21 00:55:05;;;;;;;12.27;10.98;;;;;;;;;;5069143;28;20429;-70
2023/08/21 00:57:31;;;;;;;12.90;11.80;;;;;;;;;;5074476;28;20023;-70
2023/08/21 00:59:56;;;;;;;12.50;11.20;;;;;;;;;;5079027;28;20028;-70
2023/08/21 01:02:22;;;;;;;12.30;11.20;;;;;;;;;;5073533;28;20067;-74
2023/08/21 01:04:47;;;;;;;13.10;11.90;;;;;;;;;;5068323;28;20458;-71
2023/08/21 01:07:13;;;;;;;13.10;11.90;;;;;;;;;;5076689;28;20424;-70
2023/08/21 01:09:57;;;;;;;13.75;11.07;;;;;;;;;;5077244;28;20404;-70
2023/08/21 01:12:26;;;;;;;12.63;11.02;;;;;;;;;;5072774;28;20081;-71
2023/08/21 01:14:55;;;;;;;12.73;11.60;;;;;;;;;;5074699;28;20082;-70
2023/08/21 01:17:22;;;;;;;12.88;11.82;;;;;;;;;;5075331;28;20111;-70
2023/08/21 01:19:48;;;;;;;11.73;10.73;;;;;;;;;;5075526;28;20031;-71
2023/08/21 01:22:13;;;;;;;12.70;11.30;;;;;;;;;;5077144;28;20032;-69
2023/08/21 01:24:39;;;;;;;12.65;11.55;;;;;;;;;;5070340;28;20032;-71
2023/08/21 01:27:04;;;;;;;12.27;10.75;;;;;;;;;;5062875;28;20432;-70
2023/08/21 01:29:30;;;;;;;12.02;10.85;;;;;;;;;;5074393;28;20032;-69
2023/08/21 01:31:58;;;;;;;11.65;10.50;;;;;;;;;;5073615;28;20335;-71
2023/08/21 01:34:23;;;;;;;13.57;12.27;;;;;;;;;;5073850;28;20024;-70
2023/08/21 01:36:49;;;;;;;14.52;11.02;;;;;;;;;;5075964;28;20039;-69
2023/08/21 01:39:14;;;;;;;15.95;11.25;;;;;;;;;;5077809;28;20053;-71
2023/08/21 01:41:41;;;;;;;12.40;11.15;;;;;;;;;;5075131;28;20040;-71
2023/08/21 01:44:06;;;;;;;11.00;9.95;;;;;;;;;;5066561;28;20516;-73
2023/08/21 01:46:31;;;;;;;11.70;10.70;;;;;;;;;;5066919;28;20139;-71
2023/08/21 01:48:57;;;;;;;11.18;10.27;;;;;;;;;;5066270;28;20413;-70
2023/08/21 01:51:22;;;;;;;11.25;10.15;;;;;;;;;;5048296;28;20034;-74
2023/08/21 01:53:47;;;;;;;12.60;11.43;;;;;;;;;;5070653;28;20111;-74
2023/08/21 01:56:13;;;;;;;11.57;10.63;;;;;;;;;;5064758;28;20028;-70
2023/08/21 01:58:38;;;;;;;11.63;10.65;;;;;;;;;;5073413;28;20468;-70
2023/08/21 02:01:04;;;;;;;11.77;10.85;;;;;;;;;;5063651;28;20342;-70
2023/08/21 02:03:30;;;;;;;12.07;11.07;;;;;;;;;;5067021;28;20016;-73
2023/08/21 02:05:59;;;;;;;12.00;10.82;;;;;;;;;;5073819;28;20027;-70
2023/08/21 02:08:26;;;;;;;13.10;11.97;;;;;;;;;;5074539;28;20446;-70
2023/08/21 02:10:52;;;;;;;11.80;10.70;;;;;;;;;;5065417;28;20130;-74
2023/08/21 02:13:18;;;;;;;11.90;10.65;;;;;;;;;;5074917;28;20494;-71
2023/08/21 02:15:43;;;;;;;11.32;10.43;;;;;;;;;;5063899;28;20031;-71
2023/08/21 02:18:09;;;;;;;11.43;10.52;;;;;;;;;;5074381;28;20056;-70
2023/08/21 02:20:34;;;;;;;11.43;10.50;;;;;;;;;;5051097;28;20039;-71
2023/08/21 02:23:00;;;;;;;11.98;10.82;;;;;;;;;;5072229;28;20131;-70
2023/08/21 02:25:25;;;;;;;11.80;10.80;;;;;;;;;;5072589;28;20035;-74
2023/08/21 02:27:50;;;;;;;10.27;9.32;;;;;;;;;;5075548;28;20024;-71
2023/08/21 02:30:16;;;;;;;11.48;10.45;;;;;;;;;;5065427;28;20024;-71
2023/08/21 02:32:41;;;;;;;11.63;10.52;;;;;;;;;;5072176;28;20047;-72
2023/08/21 02:35:08;;;;;;;11.90;10.80;;;;;;;;;;5067937;28;20015;-70
2023/08/21 02:37:33;;;;;;;12.57;11.38;;;;;;;;;;5071918;28;20221;-70
2023/08/21 02:39:59;;;;;;;10.25;9.45;;;;;;;;;;5074338;28;20024;-72
2023/08/21 02:42:25;;;;;;;11.57;10.60;;;;;;;;;;5071053;28;20030;-71
2023/08/21 02:44:50;;;;;;;12.70;10.77;;;;;;;;;;5066382;28;20028;-74
2023/08/21 02:47:15;;;;;;;11.98;11.05;;;;;;;;;;5062089;28;20130;-72
2023/08/21 02:49:41;;;;;;;13.60;11.05;;;;;;;;;;5064488;28;20058;-77
2023/08/21 02:52:06;;;;;;;12.15;10.95;;;;;;;;;;5072335;28;20456;-75
2023/08/21 02:54:31;;;;;;;11.90;10.52;;;;;;;;;;5075396;28;20020;-72
2023/08/21 02:56:57;;;;;;;10.60;9.55;;;;;;;;;;5063337;28;20107;-73
2023/08/21 02:59:22;;;;;;;11.82;10.65;;;;;;;;;;5063497;28;20024;-71
2023/08/21 03:01:48;;;;;;;11.43;10.32;;;;;;;;;;5066696;28;20435;-71
2023/08/21 03:04:13;;;;;;;11.38;10.25;;;;;;;;;;5064576;28;20115;-72
2023/08/21 03:06:38;;;;;;;12.30;10.65;;;;;;;;;;5071536;28;20012;-71
2023/08/21 03:09:04;;;;;;;11.02;10.10;;;;;;;;;;5074896;28;20416;-73
2023/08/21 03:11:29;;;;;;;12.70;11.45;;;;;;;;;;5072993;28;20020;-75
2023/08/21 03:13:54;;;;;;;12.60;11.32;;;;;;;;;;5074174;28;20092;-71
2023/08/21 03:16:20;;;;;;;11.70;10.50;;;;;;;;;;5065886;28;20512;-69
2023/08/21 03:18:58;;;;;;;12.52;11.30;;;;;;;;;;5071046;28;20020;-73
2023/08/21 03:21:24;;;;;;;11.68;10.68;;;;;;;;;;5073095;28;20032;-71
2023/08/21 03:23:51;;;;;;;12.68;11.05;;;;;;;;;;5069684;28;20024;-72
2023/08/21 03:26:16;;;;;;;14.20;11.50;;;;;;;;;;5068225;28;20024;-75
2023/08/21 03:28:42;;;;;;;11.85;10.80;;;;;;;;;;5071077;28;20332;-70
2023/08/21 03:31:07;;;;;;;12.88;11.68;;;;;;;;;;5068008;28;20073;-73
2023/08/21 03:33:32;;;;;;;12.27;11.05;;;;;;;;;;5067431;28;20035;-70
2023/08/21 03:35:58;;;;;;;12.35;11.15;;;;;;;;;;5073157;28;20026;-70
2023/08/21 03:38:23;;;;;;;11.25;10.27;;;;;;;;;;5064697;28;20048;-72
2023/08/21 03:40:48;;;;;;;13.68;11.32;;;;;;;;;;5062298;28;20032;-71
2023/08/21 03:43:14;;;;;;;12.63;11.35;;;;;;;;;;5071050;28;20132;-70
2023/08/21 03:45:39;;;;;;;11.98;10.88;;;;;;;;;;5067248;28;20051;-71
2023/08/21 03:48:04;;;;;;;11.60;10.63;;;;;;;;;;5068926;28;20042;-72
2023/08/21 03:50:30;;;;;;;11.48;10.48;;;;;;;;;;5069002;28;20496;-76
2023/08/21 03:52:55;;;;;;;13.18;11.77;;;;;;;;;;5075499;28;20031;-72
2023/08/21 03:55:20;;;;;;;12.63;11.48;;;;;;;;;;5072640;28;20137;-71
2023/08/21 03:57:46;;;;;;;13.18;11.90;;;;;;;;;;5057648;28;20107;-75
2023/08/21 04:00:11;;;;;;;15.27;11.82;;;;;;;;;;5063676;28;20036;-76
2023/08/21 04:02:37;;;;;;;12.90;11.48;;;;;;;;;;5066860;28;20028;-70
2023/08/21 04:05:02;;;;;;;13.15;11.95;;;;;;;;;;5076669;28;20454;-71
2023/08/21 04:07:28;;;;;;;12.13;11.05;;;;;;;;;;5074303;28;20050;-70
2023/08/21 04:09:53;;;;;;;13.13;11.93;;;;;;;;;;5074199;28;20100;-69
2023/08/21 04:12:18;;;;;;;17.15;13.18;;;;;;;;;;5077537;28;20085;-69
2023/08/21 04:14:44;;;;;;;26.45;18.10;;;;;;;;;;5063516;28;20020;-74
2023/08/21 04:17:09;;;;;;;22.85;15.98;;;;;;;;;;5051677;28;20388;-74
2023/08/21 04:19:34;;;;;;;15.57;14.05;;;;;;;;;;5054475;28;20024;-71
2023/08/21 04:22:00;;;;;;;15.88;14.25;;;;;;;;;;5052718;28;20115;-74
2023/08/21 04:24:25;;;;;;;14.07;12.40;;;;;;;;;;5052166;28;20493;-71
2023/08/21 04:26:50;;;;;;;14.23;12.82;;;;;;;;;;5052095;28;20024;-68
2023/08/21 04:29:16;;;;;;;12.73;11.55;;;;;;;;;;5060294;28;20036;-72
2023/08/21 04:31:41;;;;;;;13.45;11.88;;;;;;;;;;5071876;28;20107;-68
2023/08/21 04:34:07;;;;;;;14.93;13.52;;;;;;;;;;5073522;28;20046;-69
2023/08/21 04:36:32;;;;;;;13.52;12.20;;;;;;;;;;5071241;28;20103;-69
2023/08/21 04:38:57;;;;;;;13.43;12.15;;;;;;;;;;5076263;28;20024;-71
2023/08/21 04:41:23;;;;;;;13.13;12.05;;;;;;;;;;5074431;28;20033;-73
2023/08/21 04:43:48;;;;;;;13.43;12.13;;;;;;;;;;5069324;28;20032;-72
2023/08/21 04:46:13;;;;;;;14.10;12.68;;;;;;;;;;5074857;28;20892;-70
2023/08/21 04:48:39;;;;;;;13.07;11.77;;;;;;;;;;5066147;28;20112;-70
2023/08/21 04:51:04;;;;;;;13.20;11.93;;;;;;;;;;5064979;28;20024;-73
2023/08/21 04:53:30;;;;;;;12.68;11.48;;;;;;;;;;5062628;28;20027;-69
2023/08/21 04:55:55;;;;;;;13.13;11.82;;;;;;;;;;5061515;28;20029;-69
2023/08/21 04:58:20;;;;;;;13.70;12.32;;;;;;;;;;5072035;28;20028;-69
2023/08/21 05:00:46;;;;;;;13.65;12.45;;;;;;;;;;5073522;28;20103;-70
2023/08/21 05:03:12;;;;;;;13.25;12.02;;;;;;;;;;5073007;28;20116;-71
2023/08/21 05:05:37;;;;;;;12.75;11.65;;;;;;;;;;5074550;28;20416;-70
2023/08/21 05:08:03;;;;;;;13.50;12.20;;;;;;;;;;5074421;28;20046;-70
2023/08/21 05:10:28;;;;;;;13.77;12.23;;;;;;;;;;5075392;28;20043;-69
2023/08/21 05:12:56;;;;;;;13.43;12.25;;;;;;;;;;5077111;28;20475;-68
2023/08/21 05:15:22;;;;;;;14.85;12.20;;;;;;;;;;5072852;28;20056;-74
2023/08/21 05:17:47;;;;;;;13.50;12.07;;;;;;;;;;5070811;28;20071;-71
2023/08/21 05:20:14;;;;;;;12.65;11.45;;;;;;;;;;5062437;28;20031;-68
2023/08/21 05:22:40;;;;;;;14.30;12.80;;;;;;;;;;5064380;28;20169;-68
2023/08/21 05:25:05;;;;;;;12.88;11.68;;;;;;;;;;5071878;28;20099;-69
2023/08/21 05:27:30;;;;;;;13.98;11.70;;;;;;;;;;5077088;28;20028;-66
2023/08/21 05:29:56;;;;;;;12.10;10.80;;;;;;;;;;5075366;28;20032;-74
2023/08/21 05:32:21;;;;;;;13.02;11.88;;;;;;;;;;5076013;28;20024;-71
2023/08/21 05:34:47;;;;;;;12.40;11.02;;;;;;;;;;5073983;28;20172;-68
2023/08/21 05:37:12;;;;;;;13.40;11.35;;;;;;;;;;5075303;28;20032;-71
2023/08/21 05:39:37;;;;;;;13.30;12.05;;;;;;;;;;5073349;28;20043;-69
2023/08/21 05:42:03;;;;;;;12.98;11.88;;;;;;;;;;5067873;28;20024;-67
2023/08/21 05:44:28;;;;;;;12.23;11.13;;;;;;;;;;5065173;28;20153;-69
2023/08/21 05:46:54;;;;;;;12.18;11.13;;;;;;;;;;5074763;28;20044;-69
2023/08/21 05:49:19;;;;;;;12.50;11.38;;;;;;;;;;5074946;28;20443;-71
2023/08/21 05:51:44;;;;;;;12.60;11.30;;;;;;;;;;5075204;28;20031;-67
2023/08/21 05:54:10;;;;;;;11.90;10.90;;;;;;;;;;5074606;28;20519;-68
2023/08/21 05:56:35;;;;;;;12.52;11.32;;;;;;;;;;5074488;28;20039;-70
2023/08/21 05:59:00;;;;;;;10.43;9.40;;;;;;;;;;5074036;28;20043;-71
2023/08/21 06:01:26;;;;;;;9.98;9.02;;;;;;;;;;5075220;28;20047;-74
2023/08/21 06:03:51;;;;;;;12.10;10.30;;;;;;;;;;5075775;28;20119;-71
2023/08/21 06:06:16;;;;;;;11.45;10.35;;;;;;;;;;5076899;28;20348;-69
2023/08/21 06:08:42;;;;;;;10.48;9.55;;;;;;;;;;5074792;28;20103;-70
2023/08/21 06:11:07;;;;;;;11.02;10.02;;;;;;;;;;5075096;28;20032;-68
2023/08/21 06:13:32;;;;;;;10.60;9.52;;;;;;;;;;5075441;28;20029;-68
2023/08/21 06:15:58;;;;;;;10.52;9.63;;;;;;;;;;5073820;28;20026;-69
2023/08/21 06:18:23;;;;;;;10.95;10.05;;;;;;;;;;5075399;28;20043;-69
2023/08/21 06:20:53;;;;;;;11.93;10.93;;;;;;;;;;5076554;28;20051;-70
2023/08/21 06:23:18;;;;;;;10.80;9.68;;;;;;;;;;5076327;28;20024;-71
2023/08/21 06:25:44;;;;;;;11.52;10.45;;;;;;;;;;5073826;28;20358;-71
2023/08/21 06:28:09;;;;;;;10.85;9.88;;;;;;;;;;5072195;28;20036;-68
2023/08/21 06:30:34;;;;;;;10.88;9.60;;;;;;;;;;5073987;28;20020;-69
2023/08/21 06:33:00;;;;;;;11.32;10.40;;;;;;;;;;5077063;28;20031;-73
2023/08/21 06:35:25;;;;;;;11.93;9.18;;;;;;;;;;5074766;28;20023;-70
2023/08/21 06:37:51;;;;;;;10.25;9.13;;;;;;;;;;5072691;28;20089;-74
2023/08/21 06:40:17;;;;;;;10.07;8.95;;;;;;;;;;5074149;28;20135;-73
2023/08/21 06:42:42;;;;;;;9.55;8.65;;;;;;;;;;5073830;28;20109;-72
2023/08/21 06:45:08;;;;;;;9.85;8.93;;;;;;;;;;5076520;28;20238;-70
2023/08/21 06:47:33;;;;;;;9.48;8.07;;;;;;;;;;5073987;28;20090;-70
2023/08/21 06:50:00;;;;;;;9.93;8.88;;;;;;;;;;5075000;28;20028;-73
2023/08/21 06:52:25;;;;;;;9.30;8.43;;;;;;;;;;5075365;28;20023;-73
2023/08/21 06:54:51;;;;;;;8.75;7.95;;;;;;;;;;5076160;28;20030;-69
2023/08/21 06:57:16;;;;;;;8.82;7.93;;;;;;;;;;5074204;28;20032;-69
2023/08/21 06:59:41;;;;;;;9.45;8.50;;;;;;;;;;5073984;28;20021;-68
2023/08/21 07:02:07;;;;;;;10.60;8.98;;;;;;;;;;5072486;28;20093;-69
2023/08/21 07:04:35;;;;;;;13.05;9.05;;;;;;;;;;5068804;28;20032;-70
2023/08/21 07:07:00;;;;;;;10.77;9.40;;;;;;;;;;5062749;28;20058;-70
2023/08/21 07:09:26;;;;;;;11.25;8.05;;;;;;;;;;5065260;28;20051;-69
2023/08/21 07:11:51;;;;;;;9.73;8.52;;;;;;;;;;5074626;28;20340;-72
2023/08/21 07:14:17;;;;;;;8.98;7.60;;;;;;;;;;5074771;28;20106;-70
2023/08/21 07:16:42;;;;;;;11.07;8.00;;;;;;;;;;5066996;28;20055;-69
2023/08/21 07:19:08;;;;;;;8.85;7.95;;;;;;;;;;5075901;28;20028;-71
2023/08/21 07:21:35;;;;;;;17.17;7.85;;;;;;;;;;5074688;28;20116;-70
2023/08/21 07:24:00;;;;;;;11.10;8.50;;;;;;;;;;5072946;28;20020;-71
2023/08/21 07:26:26;;;;;;;7.80;7.10;;;;;;;;;;5074292;28;20447;-73
2023/08/21 07:28:52;;;;;;;8.48;7.28;;;;;;;;;;5073661;28;20466;-70
2023/08/21 07:31:18;;;;;;;8.73;7.40;;;;;;;;;;5072482;28;20431;-73
2023/08/21 07:33:43;;;;;;;8.82;8.02;;;;;;;;;;5072726;28;20420;-71
2023/08/21 07:36:09;;;;;;;8.63;7.82;;;;;;;;;;5063230;28;20012;-69
2023/08/21 07:38:34;;;;;;;10.40;9.40;;;;;;;;;;5071552;28;20090;-72
2023/08/21 07:41:10;;;;;;;8.52;7.75;;;;;;;;;;5075392;28;20032;-69
2023/08/21 07:43:36;;;;;;;11.50;7.97;;;;;;;;;;5071457;28;20055;-72
2023/08/21 07:46:05;;;;;;;8.57;7.78;;;;;;;;;;5069450;28;20055;-70
2023/08/21 07:48:30;;;;;;;;;;;;;;;;;;5072953;28;20107;-72
2023/08/21 07:50:56;;;;;;;9.73;8.00;;;;;;;;;;5074671;28;19991;-69
2023/08/21 07:53:21;;;;;;;9.88;7.75;;;;;;;;;;5073527;28;20016;-72
2023/08/21 07:55:47;;;;;;;8.98;8.27;;;;;;;;;;5072097;28;20028;-75
2023/08/21 07:58:12;;;;;;;10.32;8.60;;;;;;;;;;5073545;28;20386;-68
2023/08/21 08:00:38;;;;;;;8.95;8.10;;;;;;;;;;5057178;28;20851;-68
2023/08/21 08:03:04;;;;;;;9.30;8.38;;;;;;;;;;5075028;28;20056;-71
2023/08/21 08:05:29;;;;;;;8.85;8.05;;;;;;;;;;5065463;28;20104;-70
2023/08/21 08:07:54;;;;;;;10.77;8.02;;;;;;;;;;5072211;28;20457;-69
2023/08/21 08:10:20;;;;;;;12.90;8.38;;;;;;;;;;5073194;28;20040;-73
2023/08/21 08:12:45;;;;;;;10.23;8.70;;;;;;;;;;5062600;28;20455;-70
2023/08/21 08:15:11;;;;;;;8.70;7.90;;;;;;;;;;5061335;28;20426;-70
2023/08/21 08:17:36;;;;;;;9.13;8.23;;;;;;;;;;5057631;28;20036;-75
2023/08/21 08:20:01;;;;;;;8.70;7.75;;;;;;;;;;5055148;28;20043;-70
2023/08/21 08:22:27;;;;;;;9.40;8.43;;;;;;;;;;5072032;28;20024;-69
2023/08/21 08:24:52;;;;;;;8.52;7.63;;;;;;;;;;5073931;28;20085;-72
2023/08/21 08:27:17;;;;;;;8.48;7.55;;;;;;;;;;5070975;28;20024;-72
2023/08/21 08:29:43;;;;;;;9.73;7.93;;;;;;;;;;5075969;28;20159;-71
2023/08/21 08:32:08;;;;;;;8.30;7.55;;;;;;;;;;5074842;28;20504;-72
2023/08/21 08:34:33;;;;;;;8.13;7.28;;;;;;;;;;5078636;28;20374;-74
2023/08/21 08:36:59;;;;;;;10.18;7.40;;;;;;;;;;5076808;28;20121;-77
2023/08/21 08:39:24;;;;;;;8.35;7.72;;;;;;;;;;5075093;28;20097;-73
2023/08/21 08:41:56;;;;;;;8.45;7.07;;;;;;;;;;5073775;28;20435;-75
2023/08/21 08:44:24;;;;;;;8.15;7.45;;;;;;;;;;5070538;28;20028;-70
2023/08/21 08:46:50;;;;;;;7.75;6.95;;;;;;;;;;5072212;28;20044;-71
2023/08/21 08:49:16;;;;;;;8.07;7.35;;;;;;;;;;5065115;28;20040;-74
2023/08/21 08:51:42;;;;;;;8.90;7.85;;;;;;;;;;5067012;28;20024;-70
2023/08/21 08:54:08;;;;;;;8.30;7.55;;;;;;;;;;5076918;28;20566;-69
2023/08/21 08:56:33;;;;;;;8.40;7.70;;;;;;;;;;5077183;28;20058;-71
2023/08/21 08:58:58;;;;;;;8.07;7.07;;;;;;;;;;5075019;28;20086;-71
2023/08/21 09:01:24;;;;;;;8.15;7.13;;;;;;;;;;5074840;28;20134;-74
2023/08/21 09:03:50;;;;;;;8.18;7.40;;;;;;;;;;5075621;28;20020;-72
2023/08/21 09:06:15;;;;;;;9.63;6.85;;;;;;;;;;5074583;28;20028;-72
2023/08/21 09:08:52;;;;;;;7.95;7.10;;;;;;;;;;5068686;28;20410;-69
2023/08/21 09:11:18;;;;;;;8.30;7.55;;;;;;;;;;5063396;28;20445;-76
2023/08/21 09:13:43;;;;;;;7.63;7.03;;;;;;;;;;5065584;28;20412;-68
2023/08/21 09:16:09;;;;;;;8.68;7.30;;;;;;;;;;5064317;28;20028;-68
2023/08/21 09:18:34;;;;;;;7.70;7.13;;;;;;;;;;5063144;28;20420;-69
2023/08/21 09:21:02;;;;;;;7.60;6.80;;;;;;;;;;5064324;28;20031;-70
2023/08/21 09:23:28;;;;;;;7.47;6.88;;;;;;;;;;5064273;28;20069;-73
2023/08/21 09:25:53;;;;;;;7.75;6.57;;;;;;;;;;5064709;28;20110;-69
2023/08/21 09:28:23;;;;;;;7.55;6.90;;;;;;;;;;5063736;28;20114;-69
2023/08/21 09:30:49;;;;;;;7.63;6.93;;;;;;;;;;5064136;28;20023;-68
2023/08/21 09:33:16;;;;;;;7.43;6.72;;;;;;;;;;5061585;28;20032;-69
2023/08/21 09:35:42;;;;;;;8.00;6.63;;;;;;;;;;5045161;28;20415;-73
2023/08/21 09:38:08;;;;;;;7.78;6.80;;;;;;;;;;5073632;28;20017;-72
2023/08/21 09:40:33;;;;;;;7.55;6.50;;;;;;;;;;5075802;28;20474;-69
2023/08/21 09:42:59;;;;;;;8.55;6.45;;;;;;;;;;5078213;28;20024;-68
2023/08/21 09:45:25;;;;;;;7.20;6.60;;;;;;;;;;5074677;28;21101;-72
2023/08/21 09:47:51;;;;;;;8.95;6.30;;;;;;;;;;5073366;28;20066;-71
2023/08/21 09:50:17;;;;;;;7.95;7.00;;;;;;;;;;5073562;28;20066;-71
2023/08/21 09:52:43;;;;;;;7.65;6.43;;;;;;;;;;5072909;28;20029;-72
2023/08/21 09:55:09;;;;;;;7.03;6.28;;;;;;;;;;5073711;28;20029;-69
2023/08/21 09:57:36;;;;;;;7.93;6.82;;;;;;;;;;5075307;28;20733;-72
2023/08/21 10:00:05;;;;;;;8.13;6.82;;;;;;;;;;5074917;28;20035;-69
2023/08/21 10:02:31;;;;;;;7.03;6.32;;;;;;;;;;5075480;28;20378;-71
2023/08/21 10:04:57;;;;;;;6.90;6.30;;;;;;;;;;5072963;28;20034;-69
2023/08/21 10:07:24;;;;;;;7.72;7.05;;;;;;;;;;5074731;28;20081;-74
2023/08/21 10:09:50;;;;;;;9.07;6.18;;;;;;;;;;5077169;28;20024;-72
2023/08/21 10:12:16;;;;;;;8.07;6.38;;;;;;;;;;5075215;28;20407;-68
2023/08/21 10:14:42;;;;;;;8.23;6.35;;;;;;;;;;5072606;28;20021;-69
2023/08/21 10:17:08;;;;;;;8.95;6.30;;;;;;;;;;5071276;28;20023;-74
2023/08/21 10:19:34;;;;;;;7.18;6.57;;;;;;;;;;5071557;28;20328;-71
2023/08/21 10:21:59;;;;;;;19.33;6.10;;;;;;;;;;5075584;28;20040;-75
2023/08/21 10:24:45;;;;;;;6.88;6.25;;;;;;;;;;5074717;28;20036;-71
2023/08/21 10:27:11;;;;;;;7.45;6.22;;;;;;;;;;5072626;28;20047;-75
2023/08/21 10:29:38;;;;;;;7.10;6.50;;;;;;;;;;5073347;28;20395;-73
2023/08/21 10:32:04;;;;;;;6.90;6.18;;;;;;;;;;5075092;28;20028;-70
2023/08/21 10:34:34;;;;;;;8.35;7.05;;;;;;;;;;5074417;28;20443;-68
2023/08/21 10:36:59;;;;;;;7.00;6.40;;;;;;;;;;5074869;28;20019;-68
2023/08/21 10:39:25;;;;;;;7.67;7.10;;;;;;;;;;5074252;28;20431;-69
2023/08/21 10:41:58;;;;;;;7.20;6.65;;;;;;;;;;5072068;28;20272;-68
2023/08/21 10:44:37;;;;;;;7.05;6.55;;;;;;;;;;5055263;28;20126;-73
2023/08/21 10:47:21;;;;;;;7.72;7.18;;;;;;;;;;5076035;28;20143;-68
2023/08/21 10:49:47;;;;;;;7.60;6.90;;;;;;;;;;5072032;28;20033;-71
2023/08/21 10:52:14;;;;;;;7.63;6.80;;;;;;;;;;5076365;28;20075;-71
2023/08/21 10:54:43;;;;;;;7.30;6.63;;;;;;;;;;5071093;28;20048;-70
2023/08/21 10:57:08;;;;;;;7.60;6.65;;;;;;;;;;5073540;28;20043;-68
2023/08/21 10:59:33;;;;;;;11.02;6.75;;;;;;;;;;5070326;28;20032;-69
2023/08/21 11:01:58;;;;;;;7.97;7.38;;;;;;;;;;5074882;28;20023;-74
2023/08/21 11:04:24;;;;;;;7.43;6.82;;;;;;;;;;5076310;28;20078;-74
2023/08/21 11:06:51;;;;;;;9.63;6.75;;;;;;;;;;5071831;28;20039;-69
2023/08/21 11:09:16;;;;;;;7.88;7.30;;;;;;;;;;5071853;28;20152;-68
2023/08/21 11:11:43;;;;;;;9.90;9.00;;;;;;;;;;5075499;28;20058;-71
2023/08/21 11:14:08;;;;;;;7.60;6.95;;;;;;;;;;5069150;28;20443;-68
2023/08/21 11:16:34;;;;;;;8.45;6.63;;;;;;;;;;5062494;28;20027;-70
2023/08/21 11:19:03;;;;;;;9.93;7.43;;;;;;;;;;5059266;28;20033;-74
2023/08/21 11:21:28;;;;;;;6.95;6.25;;;;;;;;;;5062579;28;20108;-70
2023/08/21 11:23:54;;;;;;;7.65;6.95;;;;;;;;;;5062002;28;20396;-76
2023/08/21 11:26:21;;;;;;;7.18;6.47;;;;;;;;;;5062215;28;20035;-73
2023/08/21 11:28:46;;;;;;;7.20;6.38;;;;;;;;;;5062358;28;20111;-68
2023/08/21 11:31:12;;;;;;;7.03;6.40;;;;;;;;;;5063333;28;20036;-71
2023/08/21 11:33:38;;;;;;;7.90;6.47;;;;;;;;;;5062779;28;20016;-75
2023/08/21 11:36:04;;;;;;;7.32;6.63;;;;;;;;;;5043652;28;20044;-75
2023/08/21 11:38:30;;;;;;;6.55;6.03;;;;;;;;;;5062582;28;20036;-73
2023/08/21 11:40:59;;;;;;;7.15;6.50;;;;;;;;;;5071081;28;20366;-71
2023/08/21 11:43:41;;;;;;;10.15;6.88;;;;;;;;;;5070230;28;20033;-76
2023/08/21 11:46:07;;;;;;;7.25;6.55;;;;;;;;;;5073463;28;20059;-69
2023/08/21 11:48:33;;;;;;;7.00;6.40;;;;;;;;;;5074295;28;20347;-73
2023/08/21 11:50:58;;;;;;;7.07;6.47;;;;;;;;;;5073472;28;20031;-71
2023/08/21 11:53:50;;;;;;;7.28;6.30;;;;;;;;;;5072444;28;20120;-69
2023/08/21 11:56:16;;;;;;;6.90;6.10;;;;;;;;;;5069456;28;20044;-69
2023/08/21 11:58:43;;;;;;;16.33;14.57;;;;;;;;;;5073626;28;20132;-73
2023/08/21 12:01:09;;;;;;;10.85;7.30;;;;;;;;;;5063989;28;20020;-69
2023/08/21 12:03:36;;;;;;;10.10;6.72;;;;;;;;;;5061249;28;20442;-72
2023/08/21 12:06:04;;;;;;;7.32;6.13;;;;;;;;;;5062176;28;20028;-69
2023/08/21 12:08:29;;;;;;;8.60;7.70;;;;;;;;;;5065339;28;20020;-70
2023/08/21 12:10:54;;;;;;;11.73;7.95;;;;;;;;;;5061038;28;20466;-67
2023/08/21 12:13:20;;;;;;;8.65;7.78;;;;;;;;;;5046680;28;20035;-69
2023/08/21 12:15:45;;;;;;;8.50;7.63;;;;;;;;;;5066826;28;20062;-70
2023/08/21 12:18:10;;;;;;;9.43;8.20;;;;;;;;;;5064312;28;20047;-70
2023/08/21 12:20:36;;;;;;;8.38;7.57;;;;;;;;;;5066901;28;20058;-76
2023/08/21 12:23:01;;;;;;;10.98;8.93;;;;;;;;;;5066220;28;21071;-71
2023/08/21 12:25:26;;;;;;;9.90;8.90;;;;;;;;;;5065682;28;20093;-69
2023/08/21 12:27:52;;;;;;;8.57;7.78;;;;;;;;;;5064695;28;21271;-73
2023/08/21 12:30:17;;;;;;;12.50;8.70;;;;;;;;;;5064695;28;20036;-72
2023/08/21 12:32:42;;;;;;;12.52;8.20;;;;;;;;;;5065031;28;20024;-72
2023/08/21 12:35:11;;;;;;;13.27;8.50;;;;;;;;;;5045447;28;20032;-72
2023/08/21 12:37:36;;;;;;;;;;;;;;;;;;5066236;28;20050;-74
2023/08/21 12:40:02;;;;;;;14.67;9.97;;;;;;;;;;5065225;28;20573;-72
2023/08/21 12:42:27;;;;;;;9.57;8.73;;;;;;;;;;5065046;28;20066;-69
2023/08/21 12:44:53;;;;;;;11.80;8.55;;;;;;;;;;5066336;28;21215;-70
2023/08/21 12:47:18;;;;;;;10.82;8.27;;;;;;;;;;5062716;28;20053;-69
2023/08/21 12:49:43;;;;;;;9.57;8.57;;;;;;;;;;5065544;28;20064;-72
2023/08/21 12:52:09;;;;;;;10.77;9.68;;;;;;;;;;5047339;28;20028;-69
2023/08/21 12:54:34;;;;;;;11.02;9.93;;;;;;;;;;5064918;28;20430;-69
2023/08/21 12:56:59;;;;;;;13.80;9.82;;;;;;;;;;5066474;28;20023;-74
2023/08/21 12:59:25;;;;;;;10.52;9.52;;;;;;;;;;5064806;28;20032;-71
2023/08/21 13:01:50;;;;;;;11.43;9.45;;;;;;;;;;5065219;28;20714;-70
2023/08/21 13:04:15;;;;;;;12.43;9.95;;;;;;;;;;5065287;28;20055;-74
2023/08/21 13:06:41;;;;;;;11.85;9.98;;;;;;;;;;5074581;28;20016;-70
2023/08/21 13:09:07;;;;;;;11.55;9.10;;;;;;;;;;5063838;28;20458;-70
2023/08/21 13:11:32;;;;;;;9.68;8.57;;;;;;;;;;5065709;28;20478;-72
2023/08/21 13:13:58;;;;;;;11.90;9.70;;;;;;;;;;5063829;28;20392;-70
2023/08/21 13:16:23;;;;;;;10.40;8.63;;;;;;;;;;5064304;28;20019;-68
2023/08/21 13:18:48;;;;;;;9.50;8.80;;;;;;;;;;5063374;28;20358;-67
2023/08/21 13:21:14;;;;;;;14.07;10.20;;;;;;;;;;5061558;28;20028;-75
2023/08/21 13:23:39;;;;;;;10.20;9.20;;;;;;;;;;5061943;28;20050;-69
2023/08/21 13:26:05;;;;;;;8.77;7.97;;;;;;;;;;5072750;28;20016;-73
2023/08/21 13:28:31;;;;;;;12.10;8.27;;;;;;;;;;5068545;28;20045;-69
2023/08/21 13:30:56;;;;;;;13.35;12.07;;;;;;;;;;5063208;28;20035;-67
2023/08/21 13:33:22;;;;;;;10.25;9.25;;;;;;;;;;5076480;28;20028;-67
2023/08/21 13:35:47;;;;;;;11.02;8.75;;;;;;;;;;5075411;28;20362;-69
2023/08/21 13:38:13;;;;;;;10.77;8.68;;;;;;;;;;5076254;28;20101;-68
2023/08/21 13:40:39;;;;;;;9.98;8.93;;;;;;;;;;5076001;28;20482;-66
2023/08/21 13:43:04;;;;;;;10.23;9.23;;;;;;;;;;5067560;28;20024;-70
2023/08/21 13:45:30;;;;;;;9.32;8.38;;;;;;;;;;5066539;28;20048;-70
2023/08/21 13:47:55;;;;;;;10.68;8.60;;;;;;;;;;5076017;28;20659;-66
2023/08/21 13:50:20;;;;;;;9.10;8.27;;;;;;;;;;5061124;28;20444;-66
2023/08/21 13:52:46;;;;;;;8.90;8.13;;;;;;;;;;5073333;28;20399;-69
2023/08/21 13:55:12;;;;;;;8.85;8.05;;;;;;;;;;5070102;28;20431;-67
2023/08/21 13:57:38;;;;;;;9.60;7.85;;;;;;;;;;5057353;28;20020;-66
2023/08/21 14:00:07;;;;;;;9.88;8.48;;;;;;;;;;5061839;28;20044;-67
2023/08/21 14:02:33;;;;;;;;;;;;;;;;;;5065250;28;20093;-65
2023/08/21 14:04:58;;;;;;;9.25;8.35;;;;;;;;;;5060530;28;19912;-68
2023/08/21 14:07:23;;;;;;;9.43;8.52;;;;;;;;;;5051761;28;20024;-70
2023/08/21 14:09:49;;;;;;;9.30;8.40;;;;;;;;;;5053070;28;20028;-73
2023/08/21 14:12:14;;;;;;;9.70;8.52;;;;;;;;;;5055539;28;20116;-70
2023/08/21 14:14:39;;;;;;;10.27;8.98;;;;;;;;;;5064027;28;20020;-71
2023/08/21 14:17:05;;;;;;;9.45;8.45;;;;;;;;;;5063591;28;20179;-71
2023/08/21 14:19:30;;;;;;;9.07;8.18;;;;;;;;;;5063560;28;20036;-68
2023/08/21 14:21:57;;;;;;;9.50;8.55;;;;;;;;;;5045474;28;20370;-70
2023/08/21 14:24:22;;;;;;;9.85;8.98;;;;;;;;;;5064701;28;20024;-69